Time;durP1;ratioP1;P1;durP2;ratioP2;P2;SDS_P1;SDS_P2;PMS_P1;PMS_P2;Temp;Humidity;BMP_temperature;BMP_pressure;BME280_temperature;BME280_humidity;BME280_pressure;Samples;Min_cycle;Max_cycle;Signal;HPM_P1;HPM_P2
2021/12/14 00:00:54;;;;;;;19.07;10.50;;;;;;;;;;5040493;28;20450;-73
2021/12/14 00:03:24;;;;;;;20.27;9.60;;;;;;;;;;5039660;28;20458;-73
2021/12/14 00:05:56;;;;;;;18.10;10.57;;;;;;;;;;5040599;28;20533;-73
2021/12/14 00:08:26;;;;;;;19.33;12.30;;;;;;;;;;5040518;28;20458;-72
2021/12/14 00:11:26;;;;;;;18.10;11.53;;;;;;;;;;5040088;28;20450;-73
2021/12/14 00:13:59;;;;;;;15.13;11.10;;;;;;;;;;5040211;28;20462;-72
2021/12/14 00:16:27;;;;;;;18.40;12.60;;;;;;;;;;5040259;28;20521;-72
2021/12/14 00:18:55;;;;;;;17.03;8.60;;;;;;;;;;5038754;28;20851;-72
2021/12/14 00:21:29;;;;;;;22.47;12.67;;;;;;;;;;5039675;28;20458;-72
2021/12/14 00:24:06;;;;;;;18.50;11.07;;;;;;;;;;5039605;28;20469;-72
2021/12/14 00:26:34;;;;;;;19.40;12.10;;;;;;;;;;5040032;28;20455;-72
2021/12/14 00:29:02;;;;;;;17.00;9.97;;;;;;;;;;5040658;28;20459;-73
2021/12/14 00:31:30;;;;;;;18.57;11.87;;;;;;;;;;5039337;28;20489;-72
2021/12/14 00:34:02;;;;;;;19.70;11.03;;;;;;;;;;5039185;28;20461;-72
2021/12/14 00:36:32;;;;;;;18.47;10.13;;;;;;;;;;5039465;28;20496;-73
2021/12/14 00:38:59;;;;;;;21.03;10.03;;;;;;;;;;5039535;28;20485;-72
2021/12/14 00:41:29;;;;;;;20.10;10.90;;;;;;;;;;5040314;28;20535;-72
2021/12/14 00:43:57;;;;;;;18.30;11.73;;;;;;;;;;5039236;28;20497;-71
2021/12/14 00:46:25;;;;;;;19.53;11.00;;;;;;;;;;5038682;28;20450;-71
2021/12/14 00:48:54;;;;;;;18.80;10.53;;;;;;;;;;5039008;28;20888;-72
2021/12/14 00:51:27;;;;;;;14.60;10.00;;;;;;;;;;5038730;28;20461;-72
2021/12/14 00:53:57;;;;;;;20.93;10.60;;;;;;;;;;5039060;28;20516;-72
2021/12/14 00:56:25;;;;;;;16.43;10.43;;;;;;;;;;5038814;28;20845;-73
2021/12/14 00:58:55;;;;;;;17.87;9.57;;;;;;;;;;5038908;28;20455;-72
2021/12/14 01:01:24;;;;;;;18.83;10.33;;;;;;;;;;5037657;28;20469;-73
2021/12/14 01:03:54;;;;;;;17.93;10.83;;;;;;;;;;5038628;28;20465;-73
2021/12/14 01:06:23;;;;;;;14.33;8.63;;;;;;;;;;5038396;28;20442;-73
2021/12/14 01:08:54;;;;;;;21.23;11.40;;;;;;;;;;5038744;28;20855;-71
2021/12/14 01:11:41;;;;;;;18.07;10.67;;;;;;;;;;5038063;28;20454;-71
2021/12/14 01:14:11;;;;;;;14.63;9.30;;;;;;;;;;5038208;28;20942;-73
2021/12/14 01:16:53;;;;;;;14.90;10.00;;;;;;;;;;5039044;28;20954;-70
2021/12/14 01:19:26;;;;;;;20.33;11.20;;;;;;;;;;5038670;28;20454;-71
2021/12/14 01:25:02;;;;;;;16.13;10.00;;;;;;;;;;5037598;28;20871;-72
2021/12/14 01:27:35;;;;;;;16.90;10.83;;;;;;;;;;5037445;28;20537;-72
2021/12/14 01:30:07;;;;;;;16.00;9.20;;;;;;;;;;5037862;28;20458;-72
2021/12/14 01:32:39;;;;;;;19.10;10.27;;;;;;;;;;5038480;28;20450;-72
2021/12/14 01:35:13;;;;;;;15.43;9.60;;;;;;;;;;5038312;28;20454;-73
2021/12/14 01:37:46;;;;;;;18.60;9.70;;;;;;;;;;5037645;28;20957;-73
2021/12/14 01:40:46;;;;;;;22.13;9.40;;;;;;;;;;5038371;28;20509;-73
2021/12/14 01:43:10;;;;;;;19.33;10.10;;;;;;;;;;5037578;28;21057;-73
2021/12/14 01:45:38;;;;;;;21.43;10.90;;;;;;;;;;5037417;28;20547;-72
2021/12/14 01:48:06;;;;;;;17.07;10.13;;;;;;;;;;5038302;28;20451;-72
2021/12/14 01:50:35;;;;;;;14.60;10.00;;;;;;;;;;5038171;28;20512;-72
2021/12/14 01:53:02;;;;;;;15.07;9.27;;;;;;;;;;5038049;28;20490;-73
2021/12/14 01:55:32;;;;;;;17.27;9.27;;;;;;;;;;5037827;28;20587;-73
2021/12/14 01:58:01;;;;;;;14.73;9.10;;;;;;;;;;5037844;28;20490;-73
2021/12/14 02:00:34;;;;;;;13.40;8.33;;;;;;;;;;5038268;28;20459;-72
2021/12/14 02:03:02;;;;;;;16.97;11.10;;;;;;;;;;5038041;28;20478;-72
2021/12/14 02:05:32;;;;;;;15.87;9.47;;;;;;;;;;5037785;28;20470;-72
2021/12/14 02:08:01;;;;;;;19.00;9.33;;;;;;;;;;5037784;28;20500;-72
2021/12/14 02:10:30;;;;;;;19.00;11.03;;;;;;;;;;5036921;28;20472;-72
2021/12/14 02:12:59;;;;;;;15.13;10.40;;;;;;;;;;5038284;28;20461;-72
2021/12/14 02:15:28;;;;;;;17.50;9.33;;;;;;;;;;5037582;28;21018;-72
2021/12/14 02:17:59;;;;;;;17.37;9.50;;;;;;;;;;5037419;28;20486;-72
2021/12/14 02:20:28;;;;;;;23.00;10.20;;;;;;;;;;5037486;28;20524;-72
2021/12/14 02:22:57;;;;;;;16.57;9.80;;;;;;;;;;5037263;28;20459;-72
2021/12/14 02:25:25;;;;;;;16.33;11.00;;;;;;;;;;5036919;28;20469;-73
2021/12/14 02:27:54;;;;;;;17.83;8.87;;;;;;;;;;5037193;28;20835;-72
2021/12/14 02:30:27;;;;;;;13.73;8.83;;;;;;;;;;5036472;28;20484;-73
2021/12/14 02:32:55;;;;;;;15.67;8.10;;;;;;;;;;5037245;28;20456;-73
2021/12/14 02:35:24;;;;;;;12.97;8.67;;;;;;;;;;5037137;28;20458;-72
2021/12/14 02:37:54;;;;;;;17.10;10.70;;;;;;;;;;5036655;28;20603;-73
2021/12/14 02:40:32;;;;;;;13.33;8.27;;;;;;;;;;5036557;28;20577;-73
2021/12/14 02:43:01;;;;;;;13.23;8.87;;;;;;;;;;5036927;28;20446;-72
2021/12/14 02:45:29;;;;;;;14.90;9.17;;;;;;;;;;5036930;28;20466;-73
2021/12/14 02:47:57;;;;;;;14.53;8.80;;;;;;;;;;5036714;28;20797;-73
2021/12/14 02:50:26;;;;;;;18.93;10.07;;;;;;;;;;5037279;28;20462;-72
2021/12/14 02:52:57;;;;;;;13.67;7.77;;;;;;;;;;5036464;28;20463;-73
2021/12/14 02:55:27;;;;;;;14.40;9.50;;;;;;;;;;5037001;28;20463;-72
2021/12/14 02:57:57;;;;;;;13.57;9.93;;;;;;;;;;5036990;28;20486;-72
2021/12/14 03:00:27;;;;;;;18.33;10.03;;;;;;;;;;5036757;28;20446;-72
2021/12/14 03:02:57;;;;;;;17.00;9.63;;;;;;;;;;5037141;28;20458;-72
2021/12/14 03:05:27;;;;;;;16.63;9.10;;;;;;;;;;5036979;28;20454;-72
2021/12/14 03:07:56;;;;;;;13.20;9.27;;;;;;;;;;5038132;28;20560;-72
2021/12/14 03:10:35;;;;;;;13.03;9.73;;;;;;;;;;5036940;28;20475;-72
2021/12/14 03:13:07;;;;;;;16.10;9.27;;;;;;;;;;5036506;28;20469;-72
2021/12/14 03:15:36;;;;;;;16.33;9.70;;;;;;;;;;5036458;28;20454;-72
2021/12/14 03:18:07;;;;;;;13.40;10.20;;;;;;;;;;5036323;28;20600;-72
2021/12/14 03:20:36;;;;;;;19.20;9.83;;;;;;;;;;5036059;28;20516;-72
2021/12/14 03:23:06;;;;;;;14.37;8.77;;;;;;;;;;5035924;28;20945;-72
2021/12/14 03:25:35;;;;;;;14.47;9.13;;;;;;;;;;5036638;28;20462;-72
2021/12/14 03:28:02;;;;;;;16.40;9.17;;;;;;;;;;5036617;28;20458;-72
2021/12/14 03:30:33;;;;;;;14.27;9.40;;;;;;;;;;5036645;28;20450;-72
2021/12/14 03:33:03;;;;;;;11.67;8.13;;;;;;;;;;5036706;28;20546;-73
2021/12/14 03:35:37;;;;;;;13.43;8.50;;;;;;;;;;5036559;28;20860;-72
2021/12/14 03:38:07;;;;;;;15.80;9.30;;;;;;;;;;5036393;28;20493;-72
2021/12/14 03:40:35;;;;;;;15.10;9.40;;;;;;;;;;5036814;28;20455;-72
2021/12/14 03:43:02;;;;;;;12.87;8.90;;;;;;;;;;5036346;28;20553;-72
2021/12/14 03:45:31;;;;;;;12.03;8.10;;;;;;;;;;5036360;28;20569;-72
2021/12/14 03:48:00;;;;;;;13.17;8.63;;;;;;;;;;5036135;28;20461;-72
2021/12/14 03:50:30;;;;;;;13.63;8.60;;;;;;;;;;5035981;28;20450;-72
2021/12/14 03:52:59;;;;;;;11.50;8.10;;;;;;;;;;5035916;28;20513;-72
2021/12/14 03:55:28;;;;;;;13.10;8.00;;;;;;;;;;5036432;28;20454;-72
2021/12/14 03:57:56;;;;;;;12.67;8.20;;;;;;;;;;5036016;28;20505;-72
2021/12/14 04:00:25;;;;;;;16.40;9.80;;;;;;;;;;5035837;28;20459;-72
2021/12/14 04:02:56;;;;;;;15.47;9.53;;;;;;;;;;5036364;28;20458;-72
2021/12/14 04:05:24;;;;;;;9.07;6.70;;;;;;;;;;5036599;28;20883;-73
2021/12/14 04:07:51;;;;;;;12.93;8.40;;;;;;;;;;5036450;28;20450;-73
2021/12/14 04:10:23;;;;;;;10.90;6.97;;;;;;;;;;5035646;28;20450;-73
2021/12/14 04:12:50;;;;;;;13.03;6.57;;;;;;;;;;5036029;28;20494;-72
2021/12/14 04:15:18;;;;;;;14.37;7.33;;;;;;;;;;5035488;28;20508;-73
2021/12/14 04:17:46;;;;;;;13.33;8.87;;;;;;;;;;5035986;28;20504;-72
2021/12/14 04:20:17;;;;;;;11.27;7.30;;;;;;;;;;5035633;28;20486;-73
2021/12/14 04:22:48;;;;;;;13.50;8.97;;;;;;;;;;5035819;28;20462;-73
2021/12/14 04:25:18;;;;;;;12.03;6.93;;;;;;;;;;5035851;28;20470;-73
2021/12/14 04:27:46;;;;;;;14.70;9.13;;;;;;;;;;5035635;28;20482;-72
2021/12/14 04:30:17;;;;;;;13.77;8.57;;;;;;;;;;5035377;28;20520;-72
2021/12/14 04:32:47;;;;;;;10.50;7.10;;;;;;;;;;5035283;28;20466;-73
2021/12/14 04:35:16;;;;;;;16.87;9.00;;;;;;;;;;5036465;28;20469;-73
2021/12/14 04:37:52;;;;;;;10.80;6.73;;;;;;;;;;5039146;28;20940;-72
2021/12/14 04:51:58;;;;;;;11.97;7.23;;;;;;;;;;5039141;28;20414;-72
2021/12/14 04:54:31;;;;;;;11.50;7.37;;;;;;;;;;5039334;28;20521;-72
2021/12/14 04:56:59;;;;;;;11.87;7.57;;;;;;;;;;5039626;28;20887;-73
2021/12/14 04:59:45;;;;;;;12.27;8.00;;;;;;;;;;5038368;28;20775;-73
2021/12/14 05:02:17;;;;;;;11.30;8.10;;;;;;;;;;5038797;28;20457;-72
2021/12/14 05:04:45;;;;;;;13.83;7.47;;;;;;;;;;5038299;28;20458;-73
2021/12/14 05:10:01;;;;;;;14.93;8.20;;;;;;;;;;5038987;28;20492;-73
2021/12/14 05:12:32;;;;;;;12.23;6.30;;;;;;;;;;5037939;28;20446;-72
2021/12/14 05:15:00;;;;;;;14.53;7.07;;;;;;;;;;5038221;28;20494;-72
2021/12/14 05:17:31;;;;;;;12.07;7.00;;;;;;;;;;5038179;28;20454;-73
2021/12/14 05:19:58;;;;;;;9.70;6.80;;;;;;;;;;5038182;28;20443;-73
2021/12/14 05:22:30;;;;;;;9.20;5.63;;;;;;;;;;5038764;28;20512;-71
2021/12/14 05:25:08;;;;;;;13.20;5.90;;;;;;;;;;5037734;28;20466;-72
2021/12/14 05:27:38;;;;;;;10.90;7.60;;;;;;;;;;5038167;28;20466;-73
2021/12/14 05:30:17;;;;;;;16.77;6.67;;;;;;;;;;5039415;28;20462;-74
2021/12/14 05:32:45;;;;;;;12.50;7.10;;;;;;;;;;5038709;28;20544;-72
2021/12/14 05:35:14;;;;;;;12.83;7.93;;;;;;;;;;5038463;28;20878;-73
2021/12/14 05:37:47;;;;;;;12.00;6.10;;;;;;;;;;5038932;28;20457;-73
2021/12/14 05:40:24;;;;;;;7.77;5.03;;;;;;;;;;5038080;28;20482;-72
2021/12/14 05:43:10;;;;;;;13.63;8.37;;;;;;;;;;5038364;28;20465;-73
2021/12/14 05:45:42;;;;;;;9.10;6.10;;;;;;;;;;5038434;28;20528;-73
2021/12/14 05:50:53;;;;;;;9.73;6.20;;;;;;;;;;5036795;28;20450;-72
2021/12/14 05:53:24;;;;;;;11.67;7.40;;;;;;;;;;5038726;28;20458;-72
2021/12/14 05:55:52;;;;;;;11.70;7.93;;;;;;;;;;5036921;28;20454;-72
2021/12/14 05:58:21;;;;;;;11.83;7.20;;;;;;;;;;5037639;28;20490;-72
2021/12/14 06:00:52;;;;;;;12.60;7.23;;;;;;;;;;5035492;28;20453;-72
2021/12/14 06:03:24;;;;;;;11.17;7.10;;;;;;;;;;5035500;28;20458;-72
2021/12/14 06:06:23;;;;;;;10.07;6.83;;;;;;;;;;5034560;28;20561;-72
2021/12/14 06:09:00;;;;;;;15.03;8.90;;;;;;;;;;5035055;28;20454;-72
2021/12/14 06:11:29;;;;;;;11.03;7.80;;;;;;;;;;5034370;28;20446;-73
2021/12/14 06:13:57;;;;;;;11.70;8.13;;;;;;;;;;5035356;28;20458;-72
2021/12/14 06:16:26;;;;;;;12.17;7.67;;;;;;;;;;5034792;28;20496;-73
2021/12/14 06:19:12;;;;;;;12.07;7.80;;;;;;;;;;5033699;28;20579;-72
2021/12/14 06:21:40;;;;;;;13.20;8.67;;;;;;;;;;5034813;28;20784;-73
2021/12/14 06:24:10;;;;;;;14.07;8.97;;;;;;;;;;5035715;28;20454;-73
2021/12/14 06:26:41;;;;;;;12.53;8.23;;;;;;;;;;5051908;28;20454;-73
2021/12/14 06:29:10;;;;;;;12.50;8.20;;;;;;;;;;5054650;28;20798;-73
2021/12/14 06:31:39;;;;;;;14.20;7.57;;;;;;;;;;5055747;28;20456;-73
2021/12/14 06:34:22;;;;;;;13.17;8.47;;;;;;;;;;5056410;28;20461;-73
2021/12/14 06:37:16;;;;;;;14.80;9.33;;;;;;;;;;5054198;28;20820;-72
2021/12/14 06:39:58;;;;;;;11.07;6.97;;;;;;;;;;5053282;28;20507;-72
2021/12/14 06:42:26;;;;;;;12.20;8.67;;;;;;;;;;5035159;28;21118;-72
2021/12/14 06:45:12;;;;;;;13.70;8.43;;;;;;;;;;5033853;28;20454;-72
2021/12/14 06:53:26;;;;;;;11.33;6.77;;;;;;;;;;4981112;28;20444;-72
2021/12/14 06:56:16;;;;;;;13.50;8.90;;;;;;;;;;5030140;28;20451;-72
2021/12/14 06:58:52;;;;;;;14.77;8.60;;;;;;;;;;5030894;28;20486;-72
2021/12/14 07:01:24;;;;;;;11.27;8.43;;;;;;;;;;5032893;28;20525;-72
2021/12/14 07:03:55;;;;;;;13.70;8.80;;;;;;;;;;5034491;28;20569;-72
2021/12/14 07:06:25;;;;;;;6.07;4.73;;;;;;;;;;5034217;28;20451;-72
2021/12/14 07:09:08;;;;;;;18.37;9.17;;;;;;;;;;5034439;28;20454;-72
2021/12/14 07:11:47;;;;;;;11.67;8.40;;;;;;;;;;5035201;28;20446;-72
2021/12/14 07:14:23;;;;;;;13.40;10.20;;;;;;;;;;5052462;28;20539;-72
2021/12/14 07:16:51;;;;;;;14.93;10.23;;;;;;;;;;5054584;28;20738;-72
2021/12/14 07:19:20;;;;;;;13.10;8.60;;;;;;;;;;5054609;28;20532;-72
2021/12/14 07:21:49;;;;;;;11.53;7.80;;;;;;;;;;5053962;28;20441;-72
2021/12/14 07:24:38;;;;;;;13.13;8.13;;;;;;;;;;5056053;28;20473;-72
2021/12/14 07:27:25;;;;;;;12.23;8.17;;;;;;;;;;5055056;28;20994;-73
2021/12/14 07:30:15;;;;;;;20.13;9.60;;;;;;;;;;5054514;28;20724;-73
2021/12/14 07:32:54;;;;;;;13.90;8.50;;;;;;;;;;5053816;28;20511;-74
2021/12/14 07:35:47;;;;;;;;;;;;;;;;;;;;;
2021/12/14 07:38:56;;;;;;;15.20;8.43;;;;;;;;;;5050964;28;20450;-72
2021/12/14 07:41:30;;;;;;;15.53;8.90;;;;;;;;;;4998433;28;20466;-73
2021/12/14 07:44:10;;;;;;;13.77;7.70;;;;;;;;;;5055032;28;20568;-73
2021/12/14 07:46:55;;;;;;;15.30;8.90;;;;;;;;;;5052958;28;20472;-72
2021/12/14 07:49:24;;;;;;;16.00;10.70;;;;;;;;;;5056081;28;20484;-72
2021/12/14 07:52:07;;;;;;;16.20;10.23;;;;;;;;;;5054509;28;20481;-72
2021/12/14 07:54:52;;;;;;;10.53;7.83;;;;;;;;;;5053961;28;20460;-75
2021/12/14 07:57:23;;;;;;;16.43;8.73;;;;;;;;;;5053965;28;20862;-72
2021/12/14 08:00:17;;;;;;;13.97;7.83;;;;;;;;;;5056284;28;20507;-72
2021/12/14 08:02:46;;;;;;;14.43;9.30;;;;;;;;;;5055082;28;20473;-73
2021/12/14 08:05:16;;;;;;;17.20;11.20;;;;;;;;;;5045846;28;20461;-72
2021/12/14 08:07:45;;;;;;;15.47;9.20;;;;;;;;;;5035197;28;20461;-73
2021/12/14 08:10:17;;;;;;;11.10;6.53;;;;;;;;;;5041172;28;20497;-73
2021/12/14 08:12:47;;;;;;;18.60;8.93;;;;;;;;;;5060042;28;20492;-72
2021/12/14 08:15:19;;;;;;;19.13;10.90;;;;;;;;;;5040317;28;20921;-73
2021/12/14 08:18:07;;;;;;;16.57;8.37;;;;;;;;;;5038975;28;20474;-72
2021/12/14 08:23:59;;;;;;;17.33;10.40;;;;;;;;;;5026214;28;20601;-73
2021/12/14 08:26:32;;;;;;;17.50;8.70;;;;;;;;;;5038075;28;20450;-73
2021/12/14 08:29:02;;;;;;;13.23;7.90;;;;;;;;;;5037513;28;20454;-73
2021/12/14 08:31:35;;;;;;;12.73;9.23;;;;;;;;;;5038888;28;20486;-73
2021/12/14 08:34:14;;;;;;;17.17;12.23;;;;;;;;;;5038275;28;20859;-73
2021/12/14 08:36:47;;;;;;;20.70;10.60;;;;;;;;;;5043184;28;20516;-73
2021/12/14 08:39:44;;;;;;;;;;;;;;;;;;;;;
2021/12/14 08:42:16;;;;;;;16.57;11.20;;;;;;;;;;5037222;28;20446;-73
2021/12/14 08:44:51;;;;;;;14.00;9.43;;;;;;;;;;5046117;28;20467;-73
2021/12/14 08:47:25;;;;;;;18.93;11.97;;;;;;;;;;5057424;28;20887;-73
2021/12/14 08:49:53;;;;;;;15.37;10.83;;;;;;;;;;5057391;28;20453;-73
2021/12/14 08:52:21;;;;;;;28.63;13.90;;;;;;;;;;5057610;28;20733;-74
2021/12/14 08:54:51;;;;;;;12.83;8.87;;;;;;;;;;5055345;28;20568;-74
2021/12/14 08:57:23;;;;;;;17.43;10.83;;;;;;;;;;5054534;28;20457;-73
2021/12/14 08:59:55;;;;;;;18.43;12.67;;;;;;;;;;5052313;28;20787;-72
2021/12/14 09:02:28;;;;;;;23.57;14.20;;;;;;;;;;5047706;28;20548;-73
2021/12/14 09:04:57;;;;;;;17.87;11.90;;;;;;;;;;5055432;28;20441;-73
2021/12/14 09:07:28;;;;;;;20.87;11.43;;;;;;;;;;5057371;28;20473;-73
2021/12/14 09:09:58;;;;;;;23.97;11.47;;;;;;;;;;5047504;28;21000;-73
2021/12/14 09:12:27;;;;;;;12.87;9.77;;;;;;;;;;5051534;28;20458;-73
2021/12/14 09:14:56;;;;;;;17.90;10.20;;;;;;;;;;5052037;28;20457;-73
2021/12/14 09:17:25;;;;;;;17.10;10.63;;;;;;;;;;5052574;28;20453;-73
2021/12/14 09:19:55;;;;;;;16.53;11.13;;;;;;;;;;5048196;28;20480;-73
2021/12/14 09:22:26;;;;;;;18.53;11.57;;;;;;;;;;5036194;28;20458;-73
2021/12/14 09:24:55;;;;;;;21.23;11.33;;;;;;;;;;5037155;28;20454;-73
2021/12/14 09:27:26;;;;;;;17.63;11.63;;;;;;;;;;5036920;28;20466;-72
2021/12/14 09:29:54;;;;;;;20.43;12.50;;;;;;;;;;5036074;28;20446;-72
2021/12/14 09:32:27;;;;;;;21.10;12.63;;;;;;;;;;5036093;28;20462;-71
2021/12/14 09:34:57;;;;;;;19.67;13.13;;;;;;;;;;5049015;28;20450;-73
2021/12/14 09:37:25;;;;;;;13.43;9.10;;;;;;;;;;5050105;28;21045;-71
2021/12/14 09:39:55;;;;;;;22.43;12.97;;;;;;;;;;5056099;28;20485;-72
2021/12/14 09:42:26;;;;;;;18.73;12.00;;;;;;;;;;5054896;28;20508;-69
2021/12/14 09:44:58;;;;;;;27.90;15.37;;;;;;;;;;5053606;28;20553;-68
2021/12/14 09:47:29;;;;;;;13.10;8.70;;;;;;;;;;5055944;28;20457;-68
2021/12/14 09:50:06;;;;;;;19.40;11.50;;;;;;;;;;5050619;28;20469;-69
2021/12/14 09:52:36;;;;;;;25.40;13.80;;;;;;;;;;5055921;28;20472;-68
2021/12/14 09:55:09;;;;;;;22.50;14.00;;;;;;;;;;5049785;28;20462;-68
2021/12/14 09:57:39;;;;;;;20.40;13.90;;;;;;;;;;5047895;28;20625;-73
2021/12/14 10:00:13;;;;;;;21.70;13.50;;;;;;;;;;5040468;28;20475;-71
2021/12/14 10:02:43;;;;;;;30.13;13.20;;;;;;;;;;5041775;28;20564;-72
2021/12/14 10:05:14;;;;;;;26.67;13.57;;;;;;;;;;5042616;28;20470;-69
2021/12/14 10:07:42;;;;;;;25.93;15.40;;;;;;;;;;5053267;28;20465;-69
2021/12/14 10:10:14;;;;;;;21.47;14.80;;;;;;;;;;5047045;28;20742;-72
2021/12/14 10:12:50;;;;;;;17.90;9.83;;;;;;;;;;5042556;28;20453;-72
2021/12/14 10:15:20;;;;;;;31.47;15.03;;;;;;;;;;5048311;28;20454;-72
2021/12/14 10:17:48;;;;;;;25.43;14.30;;;;;;;;;;5055376;28;20877;-72
2021/12/14 10:20:23;;;;;;;25.10;16.07;;;;;;;;;;5050887;28;20474;-74
2021/12/14 10:23:01;;;;;;;21.27;13.93;;;;;;;;;;5044689;28;20490;-74
2021/12/14 10:25:33;;;;;;;25.90;14.17;;;;;;;;;;5046780;28;20465;-74
2021/12/14 10:28:11;;;;;;;15.47;8.77;;;;;;;;;;5041758;28;20454;-73
2021/12/14 10:30:49;;;;;;;26.30;14.37;;;;;;;;;;5042288;28;20476;-74
2021/12/14 10:33:17;;;;;;;25.80;15.40;;;;;;;;;;5055493;28;20477;-73
2021/12/14 10:35:57;;;;;;;27.53;14.07;;;;;;;;;;5054040;28;20454;-72
2021/12/14 10:38:35;;;;;;;19.60;12.17;;;;;;;;;;5044970;28;20445;-72
2021/12/14 10:44:00;;;;;;;18.73;13.03;;;;;;;;;;5039468;28;20868;-72
2021/12/14 10:46:45;;;;;;;25.20;13.47;;;;;;;;;;5041717;28;20450;-72
2021/12/14 10:49:20;;;;;;;23.80;14.73;;;;;;;;;;5034615;28;20481;-74
2021/12/14 10:51:52;;;;;;;19.70;12.57;;;;;;;;;;5034136;28;20454;-73
2021/12/14 10:54:49;;;;;;;21.03;13.10;;;;;;;;;;5038117;28;20857;-73
2021/12/14 11:03:08;;;;;;;18.10;12.77;;;;;;;;;;5038099;28;20543;-72
2021/12/14 11:05:44;;;;;;;22.03;14.40;;;;;;;;;;5053316;28;20558;-73
2021/12/14 11:11:18;;;;;;;32.97;19.50;;;;;;;;;;4993287;28;20440;-72
2021/12/14 11:14:01;;;;;;;24.10;14.97;;;;;;;;;;5035742;28;20439;-73
2021/12/14 11:19:48;;;;;;;24.73;16.50;;;;;;;;;;4988501;28;20450;-73
2021/12/14 11:22:19;;;;;;;28.10;15.80;;;;;;;;;;5053583;28;20602;-73
2021/12/14 11:24:49;;;;;;;27.37;17.10;;;;;;;;;;5053912;28;20524;-72
2021/12/14 11:27:25;;;;;;;28.73;16.77;;;;;;;;;;5056529;28;20452;-73
2021/12/14 11:30:19;;;;;;;26.50;14.13;;;;;;;;;;5056234;28;20881;-74
2021/12/14 11:33:03;;;;;;;25.03;15.37;;;;;;;;;;5055937;28;20728;-72
2021/12/14 11:35:40;;;;;;;27.93;17.40;;;;;;;;;;5057913;28;20464;-72
2021/12/14 11:38:24;;;;;;;27.20;17.30;;;;;;;;;;5055848;28;20453;-72
2021/12/14 11:40:54;;;;;;;31.77;17.47;;;;;;;;;;5039217;28;20581;-72
2021/12/14 11:43:26;;;;;;;25.97;16.73;;;;;;;;;;5035004;28;20458;-72
2021/12/14 11:45:54;;;;;;;28.10;16.93;;;;;;;;;;5053704;28;20467;-72
2021/12/14 11:48:33;;;;;;;24.80;17.27;;;;;;;;;;5052680;28;20928;-71
2021/12/14 11:51:03;;;;;;;27.10;16.43;;;;;;;;;;5054236;28;20460;-71
2021/12/14 11:53:32;;;;;;;33.17;17.30;;;;;;;;;;5057848;28;20450;-71
2021/12/14 11:56:03;;;;;;;22.77;15.90;;;;;;;;;;5048266;28;20458;-71
2021/12/14 11:58:33;;;;;;;25.10;16.20;;;;;;;;;;5047094;28;20454;-71
2021/12/14 12:01:11;;;;;;;30.30;17.97;;;;;;;;;;5046927;28;20478;-73
2021/12/14 12:03:46;;;;;;;28.27;15.70;;;;;;;;;;5051016;28;20549;-72
2021/12/14 12:06:34;;;;;;;27.97;17.70;;;;;;;;;;5045364;28;21033;-70
2021/12/14 12:11:55;;;;;;;31.33;17.80;;;;;;;;;;5055354;28;20460;-71
2021/12/14 12:14:32;;;;;;;29.90;18.23;;;;;;;;;;5052305;28;20506;-72
2021/12/14 12:17:01;;;;;;;37.30;19.53;;;;;;;;;;5040691;28;20446;-71
2021/12/14 12:19:40;;;;;;;30.50;17.60;;;;;;;;;;5038187;28;20521;-72
2021/12/14 12:22:11;;;;;;;29.57;16.90;;;;;;;;;;5036324;28;20889;-72
2021/12/14 12:24:46;;;;;;;32.07;18.80;;;;;;;;;;5052326;28;20785;-72
2021/12/14 12:27:30;;;;;;;30.33;18.73;;;;;;;;;;5056816;28;20468;-72
2021/12/14 12:30:33;;;;;;;;;;;;;;;;;;;;;
2021/12/14 12:33:05;;;;;;;28.40;17.60;;;;;;;;;;5043611;28;20884;-71
2021/12/14 12:35:47;;;;;;;31.87;19.73;;;;;;;;;;5058068;28;20924;-72
2021/12/14 12:38:23;;;;;;;28.10;17.50;;;;;;;;;;5052137;28;20466;-73
2021/12/14 12:40:53;;;;;;;40.03;20.10;;;;;;;;;;5054651;28;20908;-72
2021/12/14 12:43:37;;;;;;;32.77;18.43;;;;;;;;;;5052693;28;20449;-72
2021/12/14 12:46:13;;;;;;;27.47;16.60;;;;;;;;;;5055717;28;20453;-72
2021/12/14 12:48:44;;;;;;;38.30;20.77;;;;;;;;;;5055376;28;20445;-71
2021/12/14 12:51:12;;;;;;;31.87;19.60;;;;;;;;;;5054977;28;20449;-70
2021/12/14 12:53:40;;;;;;;28.07;16.63;;;;;;;;;;5055005;28;20523;-71
2021/12/14 12:56:09;;;;;;;28.67;17.20;;;;;;;;;;5055579;28;20453;-70
2021/12/14 12:58:45;;;;;;;32.30;18.60;;;;;;;;;;5047944;28;20752;-73
2021/12/14 13:01:20;;;;;;;37.70;19.27;;;;;;;;;;5050120;28;20893;-72
2021/12/14 13:04:12;;;;;;;31.40;17.80;;;;;;;;;;5054766;28;20507;-72
2021/12/14 13:06:40;;;;;;;32.97;20.87;;;;;;;;;;5045346;28;20549;-72
2021/12/14 13:09:09;;;;;;;38.60;20.90;;;;;;;;;;5053206;28;20457;-71
2021/12/14 13:11:41;;;;;;;35.83;18.60;;;;;;;;;;5051922;28;20455;-71
2021/12/14 13:17:05;;;;;;;;;;;;;;;;;;;;;
2021/12/14 13:19:33;;;;;;;30.87;19.33;;;;;;;;;;5037667;28;20534;-72
2021/12/14 13:22:11;;;;;;;35.40;18.73;;;;;;;;;;5041601;28;20470;-72
2021/12/14 13:27:38;;;;;;;35.13;20.57;;;;;;;;;;5053931;28;20740;-73
2021/12/14 13:30:53;;;;;;;;;;;;;;;;;;;;;
2021/12/14 13:33:32;;;;;;;35.93;22.27;;;;;;;;;;5031944;28;20454;-73
2021/12/14 13:36:02;;;;;;;38.30;18.87;;;;;;;;;;5037056;28;20791;-72
2021/12/14 13:38:50;;;;;;;39.13;21.53;;;;;;;;;;5036940;28;20465;-72
2021/12/14 13:41:46;;;;;;;35.63;17.97;;;;;;;;;;5039940;28;20482;-72
2021/12/14 13:44:23;;;;;;;32.33;21.30;;;;;;;;;;5056893;28;20545;-73
2021/12/14 13:46:57;;;;;;;37.27;20.50;;;;;;;;;;5056665;28;20489;-72
2021/12/14 13:49:26;;;;;;;32.93;19.40;;;;;;;;;;5049004;28;20447;-71
2021/12/14 13:52:25;;;;;;;31.80;17.43;;;;;;;;;;5037256;28;20469;-71
2021/12/14 13:55:11;;;;;;;31.43;18.30;;;;;;;;;;5046468;28;20450;-71
2021/12/14 13:57:44;;;;;;;34.50;21.23;;;;;;;;;;5056566;28;20445;-71
2021/12/14 14:03:18;;;;;;;33.93;18.77;;;;;;;;;;5021048;28;20511;-72
2021/12/14 14:05:51;;;;;;;42.00;20.40;;;;;;;;;;4993512;28;20458;-72
2021/12/14 14:08:26;;;;;;;34.93;17.10;;;;;;;;;;5035374;28;20454;-73
2021/12/14 14:11:02;;;;;;;33.27;20.03;;;;;;;;;;5046416;28;20442;-71
2021/12/14 14:13:39;;;;;;;33.20;18.77;;;;;;;;;;5048991;28;20453;-74
2021/12/14 14:16:14;;;;;;;33.80;19.50;;;;;;;;;;5047311;28;20841;-73
2021/12/14 14:19:00;;;;;;;32.10;19.60;;;;;;;;;;5037318;28;20458;-72
2021/12/14 14:21:31;;;;;;;29.77;17.90;;;;;;;;;;5036333;28;20489;-71
2021/12/14 14:24:01;;;;;;;36.97;20.20;;;;;;;;;;5043132;28;20886;-73
2021/12/14 14:26:48;;;;;;;38.53;20.20;;;;;;;;;;5048359;28;20461;-73
2021/12/14 14:29:31;;;;;;;33.30;18.67;;;;;;;;;;5056868;28;20449;-72
2021/12/14 14:32:24;;;;;;;32.17;17.53;;;;;;;;;;5048077;28;20536;-72
2021/12/14 14:34:54;;;;;;;32.17;18.47;;;;;;;;;;5051315;28;20535;-70
2021/12/14 14:37:28;;;;;;;30.93;16.90;;;;;;;;;;5044003;28;20476;-73
2021/12/14 14:40:01;;;;;;;32.87;18.47;;;;;;;;;;5052363;28;20453;-72
2021/12/14 14:42:30;;;;;;;32.33;17.93;;;;;;;;;;5056015;28;20960;-73
2021/12/14 14:45:01;;;;;;;28.67;16.70;;;;;;;;;;5056069;28;20444;-73
2021/12/14 14:47:39;;;;;;;28.23;17.77;;;;;;;;;;5055331;28;20457;-73
2021/12/14 14:50:20;;;;;;;30.07;16.87;;;;;;;;;;5043450;28;20526;-73
2021/12/14 14:52:59;;;;;;;32.33;17.23;;;;;;;;;;5051167;28;20461;-73
2021/12/14 14:55:35;;;;;;;30.27;15.00;;;;;;;;;;5037342;28;20469;-73
2021/12/14 14:58:08;;;;;;;32.43;17.30;;;;;;;;;;5056225;28;20461;-73
2021/12/14 15:00:57;;;;;;;33.17;20.07;;;;;;;;;;5039190;28;20719;-73
2021/12/14 15:03:31;;;;;;;29.90;16.47;;;;;;;;;;5040607;28;20467;-73
2021/12/14 15:06:04;;;;;;;34.03;20.60;;;;;;;;;;5052834;28;20453;-73
2021/12/14 15:08:39;;;;;;;30.10;18.67;;;;;;;;;;5054479;28;20446;-73
2021/12/14 15:11:09;;;;;;;33.30;20.37;;;;;;;;;;5055352;28;20882;-72
2021/12/14 15:13:48;;;;;;;42.53;23.97;;;;;;;;;;5054747;28;20442;-72
2021/12/14 15:16:35;;;;;;;36.27;18.23;;;;;;;;;;5050177;28;20546;-72
2021/12/14 15:19:17;;;;;;;29.77;17.47;;;;;;;;;;5039484;28;20449;-72
2021/12/14 15:21:54;;;;;;;28.03;19.17;;;;;;;;;;5054236;28;20477;-72
2021/12/14 15:24:42;;;;;;;26.77;15.97;;;;;;;;;;5054172;28;20449;-72
2021/12/14 15:27:21;;;;;;;28.47;15.80;;;;;;;;;;5050871;28;20497;-72
2021/12/14 15:29:52;;;;;;;32.30;18.63;;;;;;;;;;5055312;28;20453;-71
2021/12/14 15:32:22;;;;;;;32.63;16.77;;;;;;;;;;5053979;28;20512;-72
2021/12/14 15:34:56;;;;;;;30.70;18.83;;;;;;;;;;5037785;28;20855;-73
2021/12/14 15:37:36;;;;;;;37.43;22.60;;;;;;;;;;5048106;28;20476;-73
2021/12/14 15:40:05;;;;;;;31.73;18.60;;;;;;;;;;5041763;28;20477;-72
2021/12/14 15:42:35;;;;;;;41.17;20.77;;;;;;;;;;5042627;28;20473;-72
2021/12/14 15:45:03;;;;;;;28.63;18.33;;;;;;;;;;5041911;28;20549;-73
2021/12/14 15:47:32;;;;;;;33.43;19.77;;;;;;;;;;5033910;28;20454;-72
2021/12/14 15:50:15;;;;;;;32.03;20.50;;;;;;;;;;5035104;28;20450;-73
2021/12/14 15:55:38;;;;;;;35.30;17.90;;;;;;;;;;5050603;28;20444;-73
2021/12/14 15:58:13;;;;;;;35.10;19.30;;;;;;;;;;5054107;28;20452;-73
2021/12/14 16:00:42;;;;;;;39.93;21.63;;;;;;;;;;5054607;28;20462;-73
2021/12/14 16:03:10;;;;;;;39.63;20.77;;;;;;;;;;5054620;28;20453;-73
2021/12/14 16:05:39;;;;;;;34.70;21.17;;;;;;;;;;5055248;28;20730;-72